createdAt,value
2023-01-22T01:43:35.814Z,97333.56
2023-01-22T02:55:29.031Z,97308.31
2023-01-22T03:00:21.085Z,97295.72
2023-01-22T03:05:13.703Z,97298.00
2023-01-22T03:10:05.898Z,97307.44
2023-01-22T03:15:15.988Z,97298.88
2023-01-22T03:20:27.445Z,97297.34
2023-01-22T03:25:19.115Z,97292.03
2023-01-22T03:30:11.821Z,97288.88
2023-01-22T03:35:03.713Z,97292.72
2023-01-22T03:39:57.240Z,97292.72
2023-01-22T03:44:48.893Z,97299.34
2023-01-22T03:49:40.560Z,97297.22
2023-01-22T03:54:32.242Z,97300.06
2023-01-22T03:59:23.918Z,97303.16
2023-01-22T04:04:15.599Z,97309.66
2023-01-22T04:09:07.639Z,97304.34
2023-01-22T04:13:59.325Z,97311.53
2023-01-22T04:18:51.063Z,97320.25
2023-01-22T04:23:42.761Z,97312.91
2023-01-22T04:28:34.422Z,97319.22
2023-01-22T04:33:26.153Z,97324.22
2023-01-22T04:38:17.864Z,97327.31
2023-01-22T04:43:10.560Z,97324.84
2023-01-22T04:48:02.601Z,97334.84
2023-01-22T04:52:56.724Z,97337.50
2023-01-22T04:57:48.995Z,97333.16
2023-01-22T05:02:43.871Z,97336.69
2023-01-22T05:07:40.284Z,97337.09
2023-01-22T05:53:28.363Z,97371.81
2023-01-22T06:03:27.823Z,97388.16
2023-01-22T06:08:21.911Z,97386.53
2023-01-22T06:13:14.687Z,97400.06
2023-01-22T06:18:08.343Z,97393.66
2023-01-22T06:23:01.133Z,97400.00
2023-01-22T06:27:53.372Z,97397.19
2023-01-22T06:37:55.591Z,97393.84
2023-01-22T06:48:01.364Z,97391.97
2023-01-22T06:52:55.697Z,97396.19
2023-01-22T07:08:00.270Z,97411.63
2023-01-22T07:12:56.553Z,97408.25
2023-01-22T07:17:59.113Z,97417.72
2023-01-22T07:22:55.898Z,97417.78
2023-01-22T07:27:49.473Z,97418.91
2023-01-22T07:37:59.441Z,97414.47
2023-01-22T07:42:52.739Z,97414.56
2023-01-22T07:53:10.037Z,97422.91
2023-01-22T08:03:24.901Z,97431.41
2023-01-22T08:08:25.358Z,97439.28
2023-01-22T08:23:31.871Z,97442.97
2023-01-22T08:28:31.260Z,97445.34
2023-01-22T08:33:32.588Z,97447.44
2023-01-22T08:38:27.884Z,97451.13
2023-01-22T08:43:19.853Z,97445.84
2023-01-22T08:53:18.723Z,97457.38
2023-01-22T08:58:10.787Z,97454.28
2023-01-22T09:03:09.953Z,97447.06
2023-01-22T09:08:02.350Z,97454.53
2023-01-22T09:12:55.774Z,97458.84
2023-01-22T09:17:48.760Z,97465.66
2023-01-22T09:53:54.622Z,97477.69
2023-01-22T10:09:20.643Z,97488.91
2023-01-22T10:14:23.598Z,97487.09
2023-01-22T10:19:31.374Z,97493.09
2023-01-22T10:24:23.606Z,97494.41
2023-01-22T10:45:17.438Z,97516.56
2023-01-22T11:05:53.180Z,97509.84
2023-01-22T11:10:58.320Z,97515.91
2023-01-22T11:27:45.624Z,97513.81
2023-01-22T11:32:56.517Z,97513.59
2023-01-22T11:54:24.377Z,97512.56
2023-01-22T11:59:37.260Z,97509.47
2023-01-22T12:10:27.027Z,97507.13
2023-01-22T12:15:47.730Z,97509.78
2023-01-22T12:42:17.964Z,97525.34
2023-01-22T13:08:25.049Z,97516.94
2023-01-22T15:17:38.091Z,97585.41
2023-01-22T15:22:30.217Z,97584.22
2023-01-22T15:27:26.120Z,97588.88
2023-01-22T15:32:20.100Z,97595.50
2023-01-22T15:37:23.495Z,97593.44
2023-01-22T15:42:26.157Z,97597.03
2023-01-22T15:47:18.520Z,97600.63
2023-01-22T15:52:11.314Z,97604.59
2023-01-22T16:02:13.272Z,97603.53
2023-01-22T16:07:07.377Z,97609.75
2023-01-22T16:17:16.311Z,97622.81
2023-01-22T16:27:14.001Z,97627.72
2023-01-22T16:42:19.572Z,97644.84
2023-01-22T17:12:45.961Z,97655.84
2023-01-22T17:17:38.771Z,97658.97
2023-01-22T17:37:54.558Z,97667.72
2023-01-22T17:47:52.208Z,97682.41
2023-01-22T17:52:44.686Z,97685.50
2023-01-22T17:57:49.379Z,97689.03
2023-01-22T18:02:41.310Z,97695.00
2023-01-22T18:17:45.583Z,97711.03
2023-01-22T18:22:42.309Z,97711.47
2023-01-22T18:27:35.026Z,97706.94
2023-01-22T18:32:28.230Z,97713.59
2023-01-22T18:37:21.346Z,97717.56
2023-01-22T18:42:13.288Z,97714.41
2023-01-22T18:47:07.765Z,97723.69
2023-01-22T18:52:02.024Z,97715.91
2023-01-22T18:56:54.738Z,97724.91
2023-01-22T19:02:00.400Z,97717.94
2023-01-22T19:06:57.368Z,97718.44
2023-01-22T19:11:52.962Z,97719.00
2023-01-22T19:16:49.428Z,97730.69
2023-01-22T19:21:46.903Z,97727.19
2023-01-22T19:31:58.879Z,97720.38
2023-01-22T19:37:06.144Z,97727.72
2023-01-22T19:52:15.609Z,97742.38
2023-01-22T19:57:08.434Z,97738.25
2023-01-22T20:17:20.014Z,97752.69
2023-01-22T20:22:12.010Z,97736.91
2023-01-22T20:47:30.656Z,97753.63
2023-01-22T20:52:26.352Z,97752.97
2023-01-22T20:57:20.712Z,97761.66
2023-01-22T21:02:12.735Z,97757.06
2023-01-22T21:17:21.335Z,97760.19
2023-01-22T21:22:13.237Z,97761.69
2023-01-22T21:27:07.021Z,97754.63
2023-01-22T21:32:00.820Z,97749.84
2023-01-22T21:42:19.477Z,97757.88
2023-01-22T21:47:11.912Z,97752.00
2023-01-22T21:52:09.480Z,97751.19
2023-01-22T21:57:02.725Z,97753.22
2023-01-22T22:01:58.535Z,97752.41
2023-01-22T22:06:50.756Z,97746.13
2023-01-22T22:11:44.669Z,97748.56
2023-01-22T22:16:37.415Z,97751.72
2023-01-22T22:21:30.198Z,97766.00
2023-01-22T22:26:22.628Z,97762.00
2023-01-22T22:31:16.848Z,97761.41
2023-01-22T22:36:12.357Z,97763.72
2023-01-22T22:41:18.357Z,97760.88
2023-01-22T22:46:23.158Z,97761.13
2023-01-22T22:51:26.110Z,97767.66
2023-01-22T22:56:19.820Z,97756.91
2023-01-22T23:01:17.018Z,97763.59
2023-01-22T23:06:16.579Z,97758.94
2023-01-22T23:11:13.177Z,97761.91
2023-01-22T23:16:11.100Z,97761.41
2023-01-22T23:21:16.740Z,97754.06
2023-01-22T23:26:25.370Z,97758.16
2023-01-22T23:31:17.677Z,97757.75
2023-01-22T23:36:15.053Z,97756.00
2023-01-22T23:41:16.508Z,97762.78
2023-01-22T23:46:13.482Z,97756.94
2023-01-22T23:51:09.483Z,97757.22
2023-01-22T23:56:02.907Z,97755.97
